Terminal Aerodrome Forecast
Issued by NWS Jackson, MS

Home | Current Version | Previous Version | Text Only | Print | Product List | Glossary On
Versions: 1 2 3 4 5 6 7 8 9 10 11 12 13
000
FTUS44 KJAN 181749
TAFMEI
TAF
KMEI 181749Z 1818/1918 20017G25KT P6SM SCT025 OVC035
     FM182300 24017G26KT P6SM VCSH BKN020 OVC030
     FM190200 31020G29KT P6SM OVC025
     FM190500 34014G20KT P6SM BKN035
     FM190900 35010KT P6SM SKC=

USA.gov is the U.S. government's official web portal to all federal, state and local government web resources and services.